createdAt,value
2022-09-27T00:01:01.257Z,5.88
2022-09-27T00:03:28.857Z,6.90
2022-09-27T00:06:05.872Z,6.25
2022-09-27T00:08:33.435Z,5.35
2022-09-27T00:11:07.469Z,6.35
2022-09-27T00:13:34.305Z,5.93
2022-09-27T00:16:04.805Z,6.00
2022-09-27T00:18:31.577Z,5.60
2022-09-27T00:21:05.093Z,5.90
2022-09-27T00:23:32.468Z,8.07
2022-09-27T00:25:59.137Z,16.17
2022-09-27T00:28:25.802Z,13.48
2022-09-27T00:30:52.702Z,8.02
2022-09-27T00:33:19.372Z,9.10
2022-09-27T00:35:46.097Z,8.55
2022-09-27T00:38:12.979Z,5.93
2022-09-27T00:40:39.631Z,6.72
2022-09-27T00:43:19.193Z,6.57
2022-09-27T00:45:53.501Z,5.22
2022-09-27T00:48:21.966Z,6.40
2022-09-27T00:50:49.620Z,5.95
2022-09-27T00:53:24.224Z,6.50
2022-09-27T00:55:56.143Z,5.85
2022-09-27T00:58:29.533Z,5.95
2022-09-27T01:01:14.360Z,5.63
2022-09-27T01:04:06.128Z,4.47
2022-09-27T01:06:32.694Z,6.47
2022-09-27T01:08:59.424Z,6.25
2022-09-27T01:11:39.878Z,6.70
2022-09-27T01:14:48.196Z,5.32
2022-09-27T01:18:05.658Z,5.85
2022-09-27T01:20:50.845Z,7.22
2022-09-27T01:23:26.647Z,6.95
2022-09-27T01:25:59.371Z,5.88
2022-09-27T01:28:50.322Z,8.07
2022-09-27T01:31:22.728Z,6.22
2022-09-27T01:34:17.011Z,7.18
2022-09-27T01:37:01.313Z,10.40
2022-09-27T01:39:27.822Z,6.78
2022-09-27T01:42:24.256Z,7.65
2022-09-27T01:44:54.482Z,6.35
2022-09-27T01:47:27.229Z,6.25
2022-09-27T01:50:08.755Z,5.78
2022-09-27T01:52:44.895Z,7.65
2022-09-27T01:55:12.274Z,5.90
2022-09-27T01:57:44.085Z,6.93
2022-09-27T02:00:11.405Z,6.20
2022-09-27T02:03:12.424Z,6.35
2022-09-27T02:05:46.714Z,7.28
2022-09-27T02:08:40.125Z,6.70
2022-09-27T02:11:10.177Z,9.55
2022-09-27T02:13:54.728Z,6.05
2022-09-27T02:16:48.480Z,5.93
2022-09-27T02:19:40.150Z,5.80
2022-09-27T02:22:09.342Z,5.10
2022-09-27T02:24:42.777Z,10.73
2022-09-27T02:27:15.476Z,6.10
2022-09-27T02:29:46.463Z,6.30
2022-09-27T02:32:13.072Z,5.80
2022-09-27T02:34:39.842Z,5.65
2022-09-27T02:37:06.402Z,6.38
2022-09-27T02:39:33.299Z,5.88
2022-09-27T02:42:00.214Z,6.78
2022-09-27T02:44:26.837Z,5.75
2022-09-27T02:47:00.371Z,6.35
2022-09-27T02:49:35.067Z,6.30
2022-09-27T02:52:04.767Z,6.00
2022-09-27T02:54:35.324Z,5.75
2022-09-27T02:57:10.332Z,6.03
2022-09-27T03:03:04.394Z,7.13
2022-09-27T03:05:45.869Z,5.45
2022-09-27T03:08:12.602Z,5.15
2022-09-27T03:10:39.276Z,6.30
2022-09-27T03:13:06.012Z,5.88
2022-09-27T03:15:32.639Z,6.88
2022-09-27T03:17:59.594Z,6.78
2022-09-27T03:20:26.219Z,6.40
2022-09-27T03:22:52.812Z,5.40
2022-09-27T03:25:21.474Z,5.90
2022-09-27T03:27:48.235Z,8.07
2022-09-27T03:30:14.839Z,6.47
2022-09-27T03:32:44.982Z,6.68
2022-09-27T03:35:12.413Z,9.90
2022-09-27T03:37:39.437Z,8.50
2022-09-27T03:40:06.659Z,16.95
2022-09-27T03:42:33.435Z,17.10
2022-09-27T03:45:00.006Z,14.25
2022-09-27T03:47:26.558Z,20.50
2022-09-27T03:49:53.212Z,10.80
2022-09-27T03:52:19.774Z,17.05
2022-09-27T03:54:46.464Z,6.82
2022-09-27T03:57:13.367Z,6.10
2022-09-27T03:59:39.957Z,5.28
2022-09-27T04:02:06.544Z,4.90
2022-09-27T04:04:33.179Z,4.20
2022-09-27T04:06:59.726Z,9.10
2022-09-27T04:09:26.375Z,7.68
2022-09-27T04:11:52.996Z,8.07
2022-09-27T04:14:19.787Z,8.43
2022-09-27T04:16:46.610Z,5.45
2022-09-27T04:19:13.380Z,5.68
2022-09-27T04:21:40.051Z,5.47
2022-09-27T04:24:06.684Z,6.90
2022-09-27T04:26:33.374Z,7.38
2022-09-27T04:29:00.026Z,6.10
2022-09-27T04:31:26.602Z,6.15
2022-09-27T04:33:54.723Z,8.35
2022-09-27T04:36:28.138Z,6.70
2022-09-27T04:38:55.727Z,6.97
2022-09-27T04:41:23.392Z,5.82
2022-09-27T04:43:54.198Z,6.18
2022-09-27T04:46:25.078Z,6.38
2022-09-27T04:48:51.701Z,7.20
2022-09-27T04:51:18.432Z,7.47
2022-09-27T04:53:45.116Z,7.07
2022-09-27T04:56:12.695Z,8.27
2022-09-27T04:58:39.406Z,8.77
2022-09-27T05:01:06.288Z,7.65
2022-09-27T05:03:33.044Z,9.93
2022-09-27T05:06:00.716Z,7.60
2022-09-27T05:08:28.507Z,7.47
2022-09-27T05:10:55.165Z,7.03
2022-09-27T05:13:22.360Z,8.02
2022-09-27T05:15:48.981Z,7.43
2022-09-27T05:18:15.701Z,9.13
2022-09-27T05:20:42.254Z,8.52
2022-09-27T05:23:08.857Z,9.48
2022-09-27T05:25:35.682Z,8.30
2022-09-27T05:28:02.491Z,9.18
2022-09-27T05:30:29.116Z,9.45
2022-09-27T05:32:55.701Z,8.60
2022-09-27T05:35:22.394Z,7.60
2022-09-27T05:37:56.423Z,8.05
2022-09-27T05:40:42.289Z,8.07
2022-09-27T05:43:09.263Z,8.07
2022-09-27T05:45:35.922Z,7.88
2022-09-27T05:48:03.265Z,10.23
2022-09-27T05:50:29.915Z,8.93
2022-09-27T05:52:56.580Z,8.90
2022-09-27T05:55:23.225Z,23.27
2022-09-27T05:58:03.259Z,15.27
2022-09-27T06:00:29.880Z,11.57
2022-09-27T06:02:57.439Z,8.73
2022-09-27T06:06:16.930Z,8.70
2022-09-27T06:08:44.105Z,29.67
2022-09-27T06:11:14.662Z,11.45
2022-09-27T06:13:41.409Z,11.27
2022-09-27T06:16:10.105Z,10.23
2022-09-27T06:18:37.180Z,10.35
2022-09-27T06:21:04.195Z,9.82
2022-09-27T06:23:33.705Z,9.77
2022-09-27T06:26:05.098Z,8.82
2022-09-27T06:28:32.349Z,10.93
2022-09-27T06:31:01.127Z,16.98
2022-09-27T06:33:31.155Z,17.10
2022-09-27T06:35:57.810Z,11.70
2022-09-27T06:38:25.983Z,9.98
2022-09-27T06:40:52.931Z,12.18
2022-09-27T06:43:20.670Z,10.57
2022-09-27T06:45:47.527Z,11.27
2022-09-27T06:48:14.918Z,11.57
2022-09-27T06:50:44.141Z,11.23
2022-09-27T06:53:11.879Z,11.02
2022-09-27T06:55:38.798Z,10.30
2022-09-27T06:58:24.000Z,10.20
2022-09-27T07:00:53.821Z,9.18
2022-09-27T07:03:23.089Z,9.30
2022-09-27T07:05:57.072Z,8.75
2022-09-27T07:08:26.397Z,8.65
2022-09-27T07:10:54.804Z,8.45
2022-09-27T07:13:21.775Z,9.10
2022-09-27T07:15:48.408Z,8.63
2022-09-27T07:18:15.209Z,8.40
2022-09-27T07:20:41.883Z,8.60
2022-09-27T07:23:09.846Z,8.75
2022-09-27T07:25:36.717Z,7.53
2022-09-27T07:28:05.440Z,8.15
2022-09-27T07:30:32.610Z,7.95
2022-09-27T07:33:04.886Z,8.73
2022-09-27T07:35:31.566Z,8.15
2022-09-27T07:37:59.015Z,7.75
2022-09-27T07:40:26.944Z,7.80
2022-09-27T07:42:57.379Z,8.52
2022-09-27T07:45:24.774Z,8.00
2022-09-27T07:47:51.491Z,8.07
2022-09-27T07:50:18.255Z,10.32
2022-09-27T07:52:46.365Z,9.50
2022-09-27T07:55:14.366Z,8.52
2022-09-27T07:57:41.409Z,9.30
2022-09-27T08:00:10.293Z,9.77
2022-09-27T08:02:37.774Z,8.55
2022-09-27T08:05:04.772Z,9.65
2022-09-27T08:08:03.821Z,10.48
2022-09-27T08:10:31.814Z,8.35
2022-09-27T08:12:59.674Z,8.65
2022-09-27T08:15:28.583Z,13.60
2022-09-27T08:17:55.587Z,10.27
2022-09-27T08:20:22.276Z,9.40
2022-09-27T08:22:48.952Z,12.00
2022-09-27T08:25:15.777Z,17.33
2022-09-27T08:27:42.465Z,7.90
2022-09-27T08:30:09.535Z,8.15
2022-09-27T08:32:37.211Z,8.90
2022-09-27T08:35:04.297Z,7.68
2022-09-27T08:37:30.930Z,8.30
2022-09-27T08:39:57.877Z,6.55
2022-09-27T08:42:24.418Z,8.20
2022-09-27T08:45:03.350Z,6.30
2022-09-27T08:47:43.972Z,7.63
2022-09-27T08:50:27.200Z,6.63
2022-09-27T08:52:58.160Z,7.72
2022-09-27T08:55:37.007Z,6.20
2022-09-27T08:58:15.722Z,6.55
2022-09-27T09:00:49.091Z,6.78
2022-09-27T09:03:36.513Z,6.70
2022-09-27T09:06:22.163Z,6.72
2022-09-27T09:09:23.136Z,6.55
2022-09-27T09:16:22.547Z,6.40
2022-09-27T09:19:19.303Z,5.90
2022-09-27T09:21:59.053Z,5.93
2022-09-27T09:25:21.855Z,6.05
2022-09-27T09:28:10.322Z,6.85
2022-09-27T09:31:10.763Z,5.65
2022-09-27T09:34:29.039Z,5.70
2022-09-27T09:37:28.285Z,6.93
2022-09-27T09:40:02.322Z,6.07
2022-09-27T09:43:10.651Z,6.53
2022-09-27T09:46:03.228Z,6.78
2022-09-27T09:48:38.237Z,6.32
2022-09-27T09:53:45.668Z,7.07
2022-09-27T09:56:21.469Z,7.15
2022-09-27T09:59:07.170Z,7.07
2022-09-27T10:01:53.416Z,6.70
2022-09-27T10:04:33.272Z,7.07
2022-09-27T10:07:04.859Z,6.53
2022-09-27T10:09:33.817Z,7.43
2022-09-27T10:12:09.463Z,7.60
2022-09-27T10:14:43.335Z,6.90
2022-09-27T10:17:34.967Z,7.53
2022-09-27T10:20:09.491Z,7.07
2022-09-27T10:22:38.599Z,6.90
2022-09-27T10:25:09.875Z,7.20
2022-09-27T10:28:04.078Z,6.97
2022-09-27T10:30:32.647Z,7.22
2022-09-27T10:33:08.262Z,7.32
2022-09-27T10:35:41.664Z,6.93
2022-09-27T10:38:37.558Z,8.07
2022-09-27T10:41:26.174Z,6.38
2022-09-27T10:43:53.229Z,7.43
2022-09-27T10:46:33.748Z,6.60
2022-09-27T10:49:09.717Z,6.05
2022-09-27T10:51:36.391Z,6.38
2022-09-27T10:54:03.029Z,5.32
2022-09-27T10:56:33.955Z,8.95
2022-09-27T10:59:00.655Z,5.70
2022-09-27T11:01:27.680Z,4.88
2022-09-27T11:03:58.569Z,5.50
2022-09-27T11:06:25.092Z,6.07
2022-09-27T11:08:52.287Z,5.35
2022-09-27T11:11:28.619Z,5.70
2022-09-27T11:14:05.101Z,6.65
2022-09-27T11:16:37.774Z,2.50
2022-09-27T11:19:15.519Z,1.60
2022-09-27T11:22:01.371Z,1.20
2022-09-27T11:24:30.809Z,2.08
2022-09-27T11:27:13.021Z,1.98
2022-09-27T11:29:50.752Z,2.15
2022-09-27T11:32:48.680Z,2.05
2022-09-27T11:35:21.532Z,1.23
2022-09-27T11:37:48.073Z,1.65
2022-09-27T11:40:25.670Z,2.63
2022-09-27T11:43:05.775Z,3.00
2022-09-27T11:46:16.555Z,3.38
2022-09-27T11:49:00.259Z,2.65
2022-09-27T11:51:30.003Z,2.15
2022-09-27T11:54:20.494Z,2.50
2022-09-27T11:56:50.257Z,2.15
2022-09-27T11:59:58.680Z,2.10
2022-09-27T12:02:56.201Z,2.35
2022-09-27T12:05:58.102Z,1.70
2022-09-27T12:08:38.549Z,1.20
2022-09-27T12:11:13.577Z,1.50
2022-09-27T12:16:08.442Z,1.15
2022-09-27T12:18:41.967Z,1.48
2022-09-27T12:21:09.726Z,1.67
2022-09-27T12:23:44.093Z,1.70
2022-09-27T12:26:26.295Z,1.38
2022-09-27T12:28:57.885Z,1.50
2022-09-27T12:31:30.442Z,1.35
2022-09-27T12:34:20.109Z,1.55
2022-09-27T12:37:03.294Z,1.70
2022-09-27T12:39:57.798Z,1.65
2022-09-27T12:42:27.532Z,1.60
2022-09-27T12:44:54.171Z,1.63
2022-09-27T12:47:55.487Z,1.80
2022-09-27T12:50:30.286Z,1.85
2022-09-27T12:53:13.161Z,1.70
2022-09-27T12:56:11.797Z,2.05
2022-09-27T12:58:44.234Z,1.83
2022-09-27T13:01:19.851Z,1.90
2022-09-27T13:04:03.560Z,1.92
2022-09-27T13:06:39.217Z,1.90
2022-09-27T13:09:19.378Z,1.90
2022-09-27T13:12:19.481Z,2.10
2022-09-27T13:15:01.257Z,1.70
2022-09-27T13:17:46.326Z,2.03
2022-09-27T13:20:28.256Z,1.88
2022-09-27T13:22:55.128Z,1.90
2022-09-27T13:25:51.658Z,1.90
2022-09-27T13:28:28.193Z,1.95
2022-09-27T13:31:04.408Z,1.67
2022-09-27T13:33:41.705Z,2.30
2022-09-27T13:36:21.858Z,1.67
2022-09-27T13:39:11.408Z,2.13
2022-09-27T13:41:50.518Z,2.63
2022-09-27T13:44:54.722Z,2.30
2022-09-27T13:47:37.731Z,1.95
2022-09-27T13:50:14.305Z,1.80
2022-09-27T13:52:43.146Z,2.10
2022-09-27T13:55:37.800Z,2.15
2022-09-27T13:58:12.764Z,1.85
2022-09-27T14:03:35.733Z,1.70
2022-09-27T14:08:36.316Z,1.80
2022-09-27T14:11:03.945Z,2.28
2022-09-27T14:13:32.156Z,2.10
2022-09-27T14:16:00.210Z,1.70
2022-09-27T14:18:26.799Z,3.60
2022-09-27T14:20:54.137Z,2.38
2022-09-27T14:23:25.067Z,2.35
2022-09-27T14:25:53.286Z,1.80
2022-09-27T14:28:20.691Z,1.92
2022-09-27T14:30:47.814Z,1.90
2022-09-27T14:33:31.624Z,2.13
2022-09-27T14:36:20.444Z,2.00
2022-09-27T14:38:49.645Z,2.45
2022-09-27T14:41:16.314Z,2.17
2022-09-27T14:43:44.216Z,2.03
2022-09-27T14:46:30.897Z,1.67
2022-09-27T14:48:57.997Z,1.70
2022-09-27T14:51:30.587Z,2.28
2022-09-27T14:54:00.710Z,2.00
2022-09-27T14:56:40.003Z,1.52
2022-09-27T14:59:12.882Z,1.80
2022-09-27T15:01:40.211Z,2.15
2022-09-27T15:04:08.053Z,2.40
2022-09-27T15:06:38.020Z,2.15
2022-09-27T15:09:05.529Z,2.15
2022-09-27T15:11:33.291Z,2.10
2022-09-27T15:14:01.868Z,2.10
2022-09-27T15:16:28.869Z,2.10
2022-09-27T15:18:59.701Z,2.05
2022-09-27T15:21:34.133Z,2.92
2022-09-27T15:24:01.924Z,2.15
2022-09-27T15:26:42.683Z,2.20
2022-09-27T15:29:19.770Z,2.60
2022-09-27T15:31:46.589Z,2.80
2022-09-27T15:34:17.941Z,2.55
2022-09-27T15:36:44.539Z,2.35
2022-09-27T15:39:12.524Z,2.60
2022-09-27T15:42:08.004Z,2.83
2022-09-27T15:45:06.284Z,2.40
2022-09-27T15:47:45.055Z,2.30
2022-09-27T15:50:17.626Z,3.22
2022-09-27T15:52:55.708Z,2.70
2022-09-27T15:55:27.082Z,2.97
2022-09-27T15:57:59.443Z,2.53
2022-09-27T16:00:26.591Z,2.40
2022-09-27T16:02:53.939Z,3.28
2022-09-27T16:05:47.464Z,3.17
2022-09-27T16:08:14.056Z,3.80
2022-09-27T16:10:43.129Z,3.72
2022-09-27T16:13:09.726Z,4.07
2022-09-27T16:15:36.480Z,4.25
2022-09-27T16:18:03.498Z,3.67
2022-09-27T16:20:31.936Z,3.42
2022-09-27T16:22:58.660Z,3.10
2022-09-27T16:25:25.307Z,3.22
2022-09-27T16:27:52.604Z,3.13
2022-09-27T16:30:20.699Z,3.47
2022-09-27T16:32:48.322Z,5.05
2022-09-27T16:35:16.028Z,4.07
2022-09-27T16:37:42.677Z,9.10
2022-09-27T16:40:10.116Z,5.40
2022-09-27T16:42:37.052Z,14.80
2022-09-27T16:45:09.535Z,26.88
2022-09-27T16:47:37.763Z,10.87
2022-09-27T16:50:23.264Z,5.93
2022-09-27T16:52:50.289Z,4.45
2022-09-27T16:55:21.143Z,5.00
2022-09-27T16:57:52.049Z,5.75
2022-09-27T17:00:18.802Z,5.60
2022-09-27T17:02:48.614Z,6.60
2022-09-27T17:05:15.731Z,5.88
2022-09-27T17:07:42.526Z,6.55
2022-09-27T17:10:09.612Z,6.10
2022-09-27T17:12:36.238Z,5.97
2022-09-27T17:15:02.862Z,6.32
2022-09-27T17:17:29.468Z,5.53
2022-09-27T17:19:56.161Z,5.85
2022-09-27T17:22:22.788Z,5.90
2022-09-27T17:24:49.413Z,6.00
2022-09-27T17:27:16.146Z,6.22
2022-09-27T17:29:42.801Z,5.75
2022-09-27T17:32:09.432Z,7.07
2022-09-27T17:34:36.565Z,7.13
2022-09-27T17:37:03.190Z,6.78
2022-09-27T17:39:29.830Z,6.05
2022-09-27T17:41:56.616Z,6.35
2022-09-27T17:44:23.913Z,6.10
2022-09-27T17:47:10.582Z,7.20
2022-09-27T17:49:55.476Z,6.38
2022-09-27T17:52:23.618Z,6.35
2022-09-27T17:54:51.786Z,6.93
2022-09-27T17:57:18.380Z,5.45
2022-09-27T17:59:45.022Z,6.35
2022-09-27T18:02:11.751Z,7.28
2022-09-27T18:04:38.411Z,7.00
2022-09-27T18:07:05.299Z,7.47
2022-09-27T18:09:32.233Z,8.07
2022-09-27T18:11:58.844Z,6.35
2022-09-27T18:14:26.717Z,6.70
2022-09-27T18:17:00.902Z,7.10
2022-09-27T18:19:28.069Z,6.05
2022-09-27T18:21:58.073Z,7.13
2022-09-27T18:24:35.033Z,6.68
2022-09-27T18:27:07.067Z,7.25
2022-09-27T18:29:36.536Z,6.82
2022-09-27T18:32:54.859Z,6.43
2022-09-27T18:35:30.373Z,7.07
2022-09-27T18:37:59.545Z,6.63
2022-09-27T18:40:51.456Z,7.30
2022-09-27T18:43:25.843Z,7.20
2022-09-27T18:45:59.086Z,6.32
2022-09-27T18:48:39.647Z,6.60
2022-09-27T18:51:14.664Z,5.63
2022-09-27T18:56:14.130Z,7.03
2022-09-27T18:58:42.520Z,5.85
2022-09-27T19:01:18.292Z,6.70
2022-09-27T19:03:49.468Z,6.70
2022-09-27T19:06:32.767Z,7.18
2022-09-27T19:08:59.844Z,6.88
2022-09-27T19:18:39.159Z,6.10
2022-09-27T19:21:10.341Z,6.70
2022-09-27T19:23:39.974Z,6.15
2022-09-27T19:26:07.641Z,6.20
2022-09-27T19:28:43.798Z,5.75
2022-09-27T19:31:15.466Z,5.85
2022-09-27T19:33:45.107Z,6.40
2022-09-27T19:36:12.999Z,5.60
2022-09-27T19:38:42.097Z,6.80
2022-09-27T19:41:18.605Z,5.78
2022-09-27T19:43:56.186Z,9.95
2022-09-27T19:46:28.358Z,9.85
2022-09-27T19:52:46.691Z,5.68
2022-09-27T19:55:13.420Z,6.53
2022-09-27T19:57:40.217Z,6.95
2022-09-27T20:00:07.838Z,6.10
2022-09-27T20:02:34.632Z,6.45
2022-09-27T20:05:01.349Z,6.72
2022-09-27T20:07:28.053Z,6.88
2022-09-27T20:09:54.846Z,6.95
2022-09-27T20:12:21.469Z,6.80
2022-09-27T20:14:48.173Z,6.22
2022-09-27T20:17:14.850Z,6.78
2022-09-27T20:19:41.549Z,8.10
2022-09-27T20:26:03.950Z,6.90
2022-09-27T20:28:30.661Z,6.97
2022-09-27T20:31:03.164Z,6.45
2022-09-27T20:33:42.384Z,7.72
2022-09-27T20:36:13.695Z,6.95
2022-09-27T20:38:44.804Z,7.55
2022-09-27T20:41:12.079Z,6.45
2022-09-27T20:43:38.878Z,5.93
2022-09-27T20:46:07.901Z,6.30
2022-09-27T20:48:34.595Z,6.75
2022-09-27T20:51:04.788Z,6.22
2022-09-27T20:53:31.923Z,6.68
2022-09-27T20:55:59.520Z,6.15
2022-09-27T20:58:26.244Z,5.93
2022-09-27T21:00:52.994Z,5.78
2022-09-27T21:03:21.850Z,5.88
2022-09-27T21:05:58.368Z,6.00
2022-09-27T21:08:25.149Z,6.30
2022-09-27T21:10:53.926Z,5.97
2022-09-27T21:13:21.175Z,6.50
2022-09-27T21:15:47.885Z,6.30
2022-09-27T21:18:14.604Z,6.82
2022-09-27T21:20:41.285Z,6.65
2022-09-27T21:23:08.050Z,7.00
2022-09-27T21:25:34.690Z,7.32
2022-09-27T21:28:04.232Z,8.13
2022-09-27T21:30:31.429Z,7.32
2022-09-27T21:32:58.078Z,7.22
2022-09-27T21:35:24.676Z,6.72
2022-09-27T21:37:51.306Z,6.53
2022-09-27T21:40:18.023Z,6.10
2022-09-27T21:42:44.692Z,5.53
2022-09-27T21:45:11.757Z,5.22
2022-09-27T21:47:38.348Z,4.85
2022-09-27T21:50:05.278Z,4.80
2022-09-27T21:52:31.903Z,5.00
2022-09-27T21:54:58.471Z,4.35
2022-09-27T21:57:25.694Z,4.13
2022-09-27T21:59:52.326Z,4.45
2022-09-27T22:02:19.748Z,3.95
2022-09-27T22:04:48.983Z,3.65
2022-09-27T22:07:16.100Z,4.38
2022-09-27T22:09:42.734Z,4.15
2022-09-27T22:12:09.764Z,3.65
2022-09-27T22:14:36.438Z,2.97
2022-09-27T22:17:03.048Z,3.53
2022-09-27T22:19:29.666Z,3.70
2022-09-27T22:21:56.259Z,3.33
2022-09-27T22:24:23.677Z,2.97
2022-09-27T22:26:50.881Z,3.33
2022-09-27T22:29:17.609Z,3.10
2022-09-27T22:31:44.368Z,4.50
2022-09-27T22:34:20.870Z,4.85
2022-09-27T22:36:47.476Z,4.35
2022-09-27T22:39:14.221Z,4.70
2022-09-27T22:41:40.908Z,5.47
2022-09-27T22:44:08.587Z,4.07
2022-09-27T22:46:35.648Z,4.88
2022-09-27T22:49:02.356Z,4.45
2022-09-27T22:51:29.154Z,4.10
2022-09-27T22:53:56.156Z,4.43
2022-09-27T22:56:22.800Z,4.45
2022-09-27T22:58:49.506Z,4.88
2022-09-27T23:01:19.513Z,5.00
2022-09-27T23:03:47.178Z,3.70
2022-09-27T23:06:14.625Z,6.75
2022-09-27T23:08:41.553Z,5.60
2022-09-27T23:11:26.302Z,5.15
2022-09-27T23:13:52.979Z,11.68
2022-09-27T23:16:25.436Z,3.40
2022-09-27T23:18:53.714Z,3.55
2022-09-27T23:21:20.374Z,8.30
2022-09-27T23:23:47.193Z,9.70
2022-09-27T23:26:14.839Z,14.68
2022-09-27T23:28:41.511Z,5.53
2022-09-27T23:31:13.542Z,6.72
2022-09-27T23:33:42.079Z,4.03
2022-09-27T23:36:10.502Z,4.10
2022-09-27T23:38:37.856Z,3.90
2022-09-27T23:41:04.520Z,4.50
2022-09-27T23:43:31.170Z,5.28
2022-09-27T23:45:57.798Z,5.43
2022-09-27T23:48:25.559Z,5.00
2022-09-27T23:50:52.475Z,4.20
2022-09-27T23:53:19.936Z,3.85
2022-09-27T23:56:16.093Z,4.38
2022-09-27T23:58:44.004Z,4.30
